CCWO2: Washita River, nr Cordell 9E

Data processed at Sun Sep 23 2018 22:02


All information presented herein is the property of the government of the United States of America and may be revised or deleted at any time without prior notice.
Dissemination of this information without the expressed written consent of the Public Affairs Office, Tulsa District U.S. Army Corps of Engineers is strictly prohibited.
These data are gathered electronically and, as presented, have not undergone any form of quality control. These data are not guaranteed to be valid or correct.
Go to home page.
Go to station list.
Go to home page.

Upstream stations:

Downstream station:
Previous Day
Next Day
Current Day
    
SHEF ID:       CCWO2     Washita River, nr Cordell 9E
STATION TYPE:  

               PRECIP     STAGE  RIV-FLOW   VOLTAGE
                   in        ft       cfs      volt
              Ccp-Rev   Ccp-Rev   Ccp-Rev   Ccp-Rev
(US/Central)
09/23 00:00      0.00      8.82       637     13.20
09/23 01:00      0.00      8.51       557     13.20
09/23 02:00      0.00      8.62       585     13.20
09/23 03:00      0.00      8.42       534     13.20
09/23 04:00      0.00      8.46       545     13.20
09/23 05:00      0.00      8.25       491     13.10
09/23 06:00      0.00      8.46       545     13.10
09/23 07:00      0.00      8.34       514     13.10
09/23 08:00      0.00      8.62       585     13.20
09/23 09:00      0.00      8.45       542     13.30
09/23 10:00      0.00      8.77       624     13.60
09/23 11:00      0.00      8.78       626     13.80
09/23 12:00      0.00      9.10       708     14.00
09/23 13:00      0.00      9.14       718     14.20
09/23 14:00      0.00      9.52       816     14.20
09/23 15:00      0.00      9.74       872     14.20
09/23 16:00      0.00      9.62       841     14.20
09/23 17:00      0.00      9.76       877     13.90
09/23 18:00      0.00      9.66       851     13.60
09/23 19:00      0.00      9.31       762     13.30
09/23 20:00      0.00      9.26       749     13.20
09/23 21:00      0.00      9.23       741     13.20
09/23 22:00      ----      ----      ----      ----
09/23 23:00      ----      ----      ----      ----